createdAt,value
2024-01-24T00:02:01.115Z,66.04
2024-01-24T00:04:28.098Z,66.24
2024-01-24T00:06:54.838Z,66.54
2024-01-24T00:09:21.615Z,66.50
2024-01-24T00:11:48.376Z,64.96
2024-01-24T00:14:15.198Z,64.10
2024-01-24T00:16:41.977Z,65.29
2024-01-24T00:19:08.756Z,65.58
2024-01-24T00:21:37.607Z,66.68
2024-01-24T00:24:04.594Z,65.24
2024-01-24T00:26:31.342Z,66.14
2024-01-24T00:28:58.573Z,64.91
2024-01-24T00:31:25.550Z,64.59
2024-01-24T00:33:54.075Z,65.22
2024-01-24T00:36:21.136Z,65.52
2024-01-24T00:38:47.869Z,65.38
2024-01-24T00:41:14.849Z,65.30
2024-01-24T00:43:42.795Z,66.28
2024-01-24T00:46:09.518Z,65.39
2024-01-24T00:48:36.237Z,65.51
2024-01-24T00:51:04.338Z,65.23
2024-01-24T00:53:34.271Z,64.39
2024-01-24T00:56:00.933Z,64.20
2024-01-24T00:58:27.578Z,66.74
2024-01-24T01:00:54.396Z,65.59
2024-01-24T01:03:21.190Z,64.82
2024-01-24T01:05:47.972Z,66.19
2024-01-24T01:08:14.729Z,66.12
2024-01-24T01:10:41.389Z,64.66
2024-01-24T01:13:08.055Z,64.39
2024-01-24T01:15:34.827Z,63.87
2024-01-24T01:18:01.539Z,64.53
2024-01-24T01:20:28.281Z,64.82
2024-01-24T01:22:54.923Z,64.72
2024-01-24T01:25:22.197Z,65.22
2024-01-24T01:27:49.139Z,65.63
2024-01-24T01:30:16.171Z,66.33
2024-01-24T01:32:43.273Z,64.59
2024-01-24T01:35:11.048Z,65.34
2024-01-24T01:37:41.706Z,65.91
2024-01-24T01:40:09.020Z,65.99
2024-01-24T01:42:35.791Z,65.49
2024-01-24T01:45:04.728Z,65.68
2024-01-24T01:47:31.469Z,66.49
2024-01-24T01:49:58.259Z,66.50
2024-01-24T01:52:25.898Z,67.39
2024-01-24T01:54:53.656Z,66.21
2024-01-24T01:57:20.480Z,65.93
2024-01-24T01:59:47.845Z,64.69
2024-01-24T02:02:15.536Z,63.95
2024-01-24T02:04:42.427Z,64.04
2024-01-24T02:07:09.137Z,63.95
2024-01-24T02:09:36.047Z,63.93
2024-01-24T02:12:02.782Z,63.54
2024-01-24T02:14:29.741Z,64.71
2024-01-24T02:16:56.458Z,64.93
2024-01-24T02:19:23.431Z,63.27
2024-01-24T02:21:50.284Z,64.32
2024-01-24T02:24:17.115Z,63.54
2024-01-24T02:26:44.221Z,62.89
2024-01-24T02:29:12.948Z,62.53
2024-01-24T02:31:39.681Z,62.98
2024-01-24T02:34:06.674Z,62.33
2024-01-24T02:36:33.421Z,61.51
2024-01-24T02:39:00.127Z,61.94
2024-01-24T02:41:27.094Z,63.13
2024-01-24T02:43:53.791Z,62.62
2024-01-24T02:46:20.505Z,63.81
2024-01-24T02:48:47.284Z,63.10
2024-01-24T02:51:24.287Z,64.17
2024-01-24T02:53:51.025Z,63.89
2024-01-24T02:56:17.707Z,63.19
2024-01-24T02:58:44.302Z,62.98
2024-01-24T03:01:11.266Z,62.09
2024-01-24T03:03:41.180Z,62.50
2024-01-24T03:06:08.360Z,63.57
2024-01-24T03:08:51.742Z,62.83
2024-01-24T03:11:19.251Z,62.13
2024-01-24T03:13:45.901Z,62.44
2024-01-24T03:16:12.728Z,61.04
2024-01-24T03:18:40.495Z,60.34
2024-01-24T03:21:10.223Z,61.49
2024-01-24T03:23:40.016Z,62.08
2024-01-24T03:26:07.857Z,60.78
2024-01-24T03:28:35.601Z,61.34
2024-01-24T03:31:02.966Z,60.89
2024-01-24T03:33:29.890Z,60.23
2024-01-24T03:35:56.580Z,61.18
2024-01-24T03:38:23.213Z,61.26
2024-01-24T03:40:49.873Z,61.05
2024-01-24T03:43:16.515Z,60.62
2024-01-24T03:45:43.219Z,60.59
2024-01-24T03:48:10.374Z,60.08
2024-01-24T03:50:37.029Z,60.05
2024-01-24T03:53:04.180Z,60.37
2024-01-24T03:55:30.871Z,60.22
2024-01-24T03:57:57.867Z,60.71
2024-01-24T04:00:25.127Z,60.18
2024-01-24T04:02:51.907Z,60.35
2024-01-24T04:05:18.666Z,60.36
2024-01-24T04:07:45.292Z,59.75
2024-01-24T04:10:11.996Z,60.02
2024-01-24T04:12:39.510Z,61.17
2024-01-24T04:15:07.828Z,60.91
2024-01-24T04:17:35.245Z,61.49
2024-01-24T04:20:02.084Z,61.84
2024-01-24T04:22:28.717Z,60.57
2024-01-24T04:24:55.527Z,60.13
2024-01-24T04:27:24.295Z,60.17
2024-01-24T04:29:50.993Z,59.66
2024-01-24T04:32:17.669Z,60.07
2024-01-24T04:34:45.508Z,60.36
2024-01-24T04:37:12.236Z,60.40
2024-01-24T04:39:38.973Z,60.30
2024-01-24T04:42:12.200Z,60.24
2024-01-24T04:44:43.250Z,62.32
2024-01-24T04:47:09.984Z,61.09
2024-01-24T04:49:44.566Z,61.25
2024-01-24T04:52:13.045Z,61.26
2024-01-24T04:54:39.828Z,60.65
2024-01-24T04:57:06.560Z,60.15
2024-01-24T04:59:42.500Z,60.58
2024-01-24T05:02:17.364Z,61.82
2024-01-24T05:04:44.240Z,62.61
2024-01-24T05:07:11.066Z,62.37
2024-01-24T05:09:37.785Z,61.83
2024-01-24T05:12:04.852Z,60.97
2024-01-24T05:14:31.541Z,60.78
2024-01-24T05:16:58.157Z,61.48
2024-01-24T05:19:24.908Z,61.67
2024-01-24T05:21:51.747Z,61.55
2024-01-24T05:24:18.467Z,61.97
2024-01-24T05:26:47.701Z,63.68
2024-01-24T05:29:14.546Z,63.31
2024-01-24T05:31:41.670Z,62.41
2024-01-24T05:34:09.721Z,61.82
2024-01-24T05:36:37.295Z,61.78
2024-01-24T05:39:08.236Z,61.98
2024-01-24T05:41:36.921Z,62.51
2024-01-24T05:44:04.332Z,61.68
2024-01-24T05:46:31.455Z,62.73
2024-01-24T05:48:59.879Z,62.28
2024-01-24T05:51:26.720Z,63.72
2024-01-24T05:53:53.775Z,62.57
2024-01-24T05:56:20.783Z,62.90
2024-01-24T05:58:48.228Z,62.13
2024-01-24T06:01:15.096Z,62.47
2024-01-24T06:03:42.780Z,62.66
2024-01-24T06:06:10.047Z,62.37
2024-01-24T06:08:36.898Z,61.35
2024-01-24T06:11:03.755Z,63.49
2024-01-24T06:13:30.364Z,63.55
2024-01-24T06:15:57.969Z,64.16
2024-01-24T06:18:24.756Z,64.86
2024-01-24T06:20:51.652Z,63.19
2024-01-24T06:23:18.473Z,62.28
2024-01-24T06:25:45.171Z,62.17
2024-01-24T06:28:11.827Z,62.76
2024-01-24T06:30:38.593Z,62.60
2024-01-24T06:33:05.604Z,61.79
2024-01-24T06:35:32.824Z,63.01
2024-01-24T06:37:59.827Z,62.71
2024-01-24T06:40:26.651Z,64.07
2024-01-24T06:42:53.791Z,65.45
2024-01-24T06:45:21.198Z,65.27
2024-01-24T06:47:48.981Z,65.09
2024-01-24T06:50:17.882Z,65.25
2024-01-24T06:52:44.600Z,64.08
2024-01-24T06:55:11.400Z,63.49
2024-01-24T06:57:38.076Z,62.35
2024-01-24T07:00:09.291Z,61.99
2024-01-24T07:02:36.047Z,62.39
2024-01-24T07:05:04.732Z,61.05
2024-01-24T07:07:31.548Z,61.13
2024-01-24T07:09:58.461Z,62.29
2024-01-24T07:12:25.282Z,60.71
2024-01-24T07:14:53.354Z,60.92
2024-01-24T07:17:20.481Z,60.49
2024-01-24T07:19:48.035Z,61.31
2024-01-24T07:22:17.518Z,61.17
2024-01-24T07:24:45.919Z,60.28
2024-01-24T07:27:12.937Z,60.95
2024-01-24T07:29:39.885Z,60.30
2024-01-24T07:32:07.071Z,61.24
2024-01-24T07:34:33.866Z,61.36
2024-01-24T07:37:00.896Z,59.97
2024-01-24T07:39:29.675Z,59.94
2024-01-24T07:41:57.400Z,60.46
2024-01-24T07:44:24.505Z,59.07
2024-01-24T07:46:51.230Z,59.28
2024-01-24T07:49:18.801Z,59.31
2024-01-24T07:51:47.916Z,58.42
2024-01-24T07:54:19.170Z,58.55
2024-01-24T07:56:46.329Z,59.98
2024-01-24T07:59:17.770Z,59.39
2024-01-24T08:01:49.770Z,58.82
2024-01-24T08:04:17.826Z,59.70
2024-01-24T08:06:47.468Z,60.62
2024-01-24T08:09:14.943Z,60.00
2024-01-24T08:11:42.343Z,60.49
2024-01-24T08:14:09.921Z,60.18
2024-01-24T08:16:36.955Z,59.17
2024-01-24T08:19:04.266Z,60.67
2024-01-24T08:21:31.722Z,60.10
2024-01-24T08:23:58.464Z,59.94
2024-01-24T08:26:25.284Z,59.04
2024-01-24T08:28:53.858Z,59.58
2024-01-24T08:31:20.788Z,61.50
2024-01-24T08:33:50.553Z,61.78
2024-01-24T08:36:20.088Z,61.82
2024-01-24T08:38:46.958Z,60.74
2024-01-24T08:41:13.776Z,60.04
2024-01-24T08:43:40.434Z,59.82
2024-01-24T08:46:07.180Z,60.86
2024-01-24T08:48:34.096Z,60.45
2024-01-24T08:51:01.380Z,60.36
2024-01-24T08:53:28.213Z,60.06
2024-01-24T08:55:56.081Z,60.14
2024-01-24T08:58:23.090Z,59.92
2024-01-24T09:00:51.307Z,58.55
2024-01-24T09:03:20.353Z,60.03
2024-01-24T09:05:47.518Z,60.42
2024-01-24T09:08:14.465Z,60.16
2024-01-24T09:10:41.160Z,58.57
2024-01-24T09:13:08.121Z,59.70
2024-01-24T09:15:35.690Z,60.72
2024-01-24T09:18:02.706Z,60.58
2024-01-24T09:20:29.616Z,60.56
2024-01-24T09:22:56.425Z,59.75
2024-01-24T09:25:23.664Z,58.92
2024-01-24T09:27:50.395Z,60.59
2024-01-24T09:30:17.536Z,60.71
2024-01-24T09:32:44.378Z,60.57
2024-01-24T09:35:11.537Z,60.68
2024-01-24T09:37:38.673Z,60.55
2024-01-24T09:40:07.956Z,59.83
2024-01-24T09:42:42.379Z,60.03
2024-01-24T09:45:10.125Z,59.14
2024-01-24T09:47:38.538Z,58.33
2024-01-24T09:50:07.651Z,59.43
2024-01-24T09:52:35.276Z,59.12
2024-01-24T09:55:06.883Z,59.85
2024-01-24T09:57:34.907Z,60.37
2024-01-24T10:00:02.239Z,60.72
2024-01-24T10:02:29.424Z,60.28
2024-01-24T10:04:59.819Z,59.18
2024-01-24T10:07:28.168Z,60.20
2024-01-24T10:10:10.942Z,59.24
2024-01-24T10:12:37.951Z,59.55
2024-01-24T10:15:05.091Z,59.70
2024-01-24T10:17:32.102Z,59.26
2024-01-24T10:20:01.715Z,59.73
2024-01-24T10:22:29.001Z,58.87
2024-01-24T10:24:56.316Z,59.41
2024-01-24T10:27:24.192Z,58.74
2024-01-24T10:29:53.922Z,59.79
2024-01-24T10:32:21.924Z,59.26
2024-01-24T10:34:51.064Z,59.75
2024-01-24T10:37:19.900Z,61.04
2024-01-24T10:39:51.547Z,59.42
2024-01-24T10:42:20.302Z,58.27
2024-01-24T10:44:51.332Z,58.72
2024-01-24T10:47:18.898Z,57.71
2024-01-24T10:49:48.038Z,58.24
2024-01-24T10:52:16.553Z,58.36
2024-01-24T10:54:46.068Z,58.54
2024-01-24T10:57:15.979Z,57.93
2024-01-24T10:59:45.330Z,57.44
2024-01-24T11:02:12.189Z,57.44
2024-01-24T11:04:40.590Z,58.21
2024-01-24T11:07:13.227Z,57.61
2024-01-24T11:10:10.950Z,57.69
2024-01-24T11:12:37.760Z,57.10
2024-01-24T11:15:09.526Z,56.30
2024-01-24T11:17:37.156Z,56.79
2024-01-24T11:20:08.159Z,56.73
2024-01-24T11:22:36.124Z,57.91
2024-01-24T11:25:02.990Z,58.13
2024-01-24T11:27:35.149Z,57.30
2024-01-24T11:30:41.325Z,56.02
2024-01-24T11:33:15.564Z,57.55
2024-01-24T11:35:46.226Z,58.29
2024-01-24T11:38:26.832Z,57.75
2024-01-24T11:41:25.354Z,57.21
2024-01-24T11:43:52.241Z,57.47
2024-01-24T11:46:21.868Z,57.75
2024-01-24T11:48:49.107Z,56.75
2024-01-24T11:51:17.343Z,57.52
2024-01-24T11:53:45.058Z,57.08
2024-01-24T11:56:15.513Z,56.81
2024-01-24T11:58:42.331Z,55.51
2024-01-24T12:01:10.778Z,57.00
2024-01-24T12:03:38.537Z,56.28
2024-01-24T12:06:06.009Z,56.78
2024-01-24T12:08:32.859Z,55.48
2024-01-24T12:11:00.168Z,55.22
2024-01-24T12:13:29.119Z,56.06
2024-01-24T12:15:56.879Z,55.75
2024-01-24T12:18:24.065Z,55.92
2024-01-24T12:20:55.559Z,55.37
2024-01-24T12:23:24.535Z,54.11
2024-01-24T12:25:52.089Z,55.12
2024-01-24T12:28:22.621Z,56.14
2024-01-24T12:30:51.316Z,56.13
2024-01-24T12:33:19.995Z,55.23
2024-01-24T12:35:48.155Z,55.45
2024-01-24T12:38:18.501Z,54.56
2024-01-24T12:40:53.742Z,55.73
2024-01-24T12:43:24.009Z,55.24
2024-01-24T12:45:52.497Z,54.47
2024-01-24T12:48:22.824Z,54.96
2024-01-24T12:50:50.761Z,55.39
2024-01-24T12:53:17.819Z,55.15
2024-01-24T12:55:44.897Z,54.44
2024-01-24T12:58:11.791Z,55.82
2024-01-24T13:00:38.584Z,55.00
2024-01-24T13:03:06.666Z,55.95
2024-01-24T13:05:42.198Z,56.17
2024-01-24T13:08:13.808Z,57.39
2024-01-24T13:10:50.122Z,56.77
2024-01-24T13:13:17.730Z,55.29
2024-01-24T13:15:49.905Z,56.30
2024-01-24T13:18:23.826Z,56.06
2024-01-24T13:20:50.676Z,57.35
2024-01-24T13:23:17.596Z,56.95
2024-01-24T13:25:46.040Z,56.48
2024-01-24T13:28:14.331Z,57.25
2024-01-24T13:30:41.451Z,56.56
2024-01-24T13:33:08.281Z,56.32
2024-01-24T13:35:35.341Z,57.03
2024-01-24T13:38:03.521Z,57.45
2024-01-24T13:40:30.769Z,56.25
2024-01-24T13:42:58.046Z,57.12
2024-01-24T13:45:25.110Z,57.45
2024-01-24T13:47:51.923Z,58.22
2024-01-24T13:50:18.821Z,56.39
2024-01-24T13:52:45.528Z,58.40
2024-01-24T13:55:12.951Z,57.99
2024-01-24T13:57:42.877Z,56.59
2024-01-24T14:00:13.124Z,55.77
2024-01-24T14:02:40.065Z,56.43
2024-01-24T14:05:07.280Z,56.71
2024-01-24T14:07:35.214Z,55.94
2024-01-24T14:10:02.285Z,57.09
2024-01-24T14:12:29.254Z,57.39
2024-01-24T14:14:56.429Z,56.98
2024-01-24T14:17:23.928Z,57.91
2024-01-24T14:19:50.804Z,57.73
2024-01-24T14:22:17.577Z,56.81
2024-01-24T14:24:44.303Z,55.98
2024-01-24T14:27:10.974Z,57.04
2024-01-24T14:29:37.961Z,56.84
2024-01-24T14:32:05.065Z,58.35
2024-01-24T14:34:31.845Z,57.24
2024-01-24T14:37:07.162Z,57.62
2024-01-24T14:39:39.232Z,57.30
2024-01-24T14:42:11.818Z,57.44
2024-01-24T14:44:38.546Z,57.05
2024-01-24T14:47:05.664Z,56.45
2024-01-24T14:49:32.827Z,57.22
2024-01-24T14:51:59.752Z,56.59
2024-01-24T14:54:27.230Z,55.74
2024-01-24T14:56:54.614Z,56.43
2024-01-24T14:59:21.475Z,56.04
2024-01-24T15:01:48.420Z,55.46
2024-01-24T15:04:15.300Z,55.64
2024-01-24T15:06:42.155Z,55.30
2024-01-24T15:09:08.905Z,55.55
2024-01-24T15:11:36.114Z,55.96
2024-01-24T15:14:04.473Z,56.20
2024-01-24T15:16:31.716Z,56.32
2024-01-24T15:18:59.478Z,55.48
2024-01-24T15:21:27.615Z,55.80
2024-01-24T15:23:59.096Z,56.37
2024-01-24T15:26:26.257Z,56.14
2024-01-24T15:28:53.426Z,56.07
2024-01-24T15:31:20.336Z,56.33
2024-01-24T15:33:47.349Z,56.23
2024-01-24T15:36:14.257Z,56.76
2024-01-24T15:38:41.047Z,56.09
2024-01-24T15:41:07.867Z,56.10
2024-01-24T15:43:38.908Z,56.59
2024-01-24T15:46:05.980Z,56.14
2024-01-24T15:48:32.815Z,57.98
2024-01-24T15:50:59.498Z,56.93
2024-01-24T15:53:26.251Z,58.45
2024-01-24T15:55:53.472Z,59.61
2024-01-24T15:58:20.206Z,59.73
2024-01-24T16:00:47.311Z,59.42
2024-01-24T16:03:16.761Z,59.84
2024-01-24T16:05:50.965Z,58.81
2024-01-24T16:08:18.217Z,59.89
2024-01-24T16:10:45.580Z,59.95
2024-01-24T16:13:12.389Z,60.00
2024-01-24T16:15:39.350Z,58.95
2024-01-24T16:18:07.155Z,58.50
2024-01-24T16:20:34.179Z,57.62
2024-01-24T16:23:01.182Z,58.10
2024-01-24T16:25:28.706Z,57.61
2024-01-24T16:27:58.727Z,57.18
2024-01-24T16:30:29.594Z,57.75
2024-01-24T16:32:57.200Z,57.12
2024-01-24T16:35:24.902Z,57.50
2024-01-24T16:37:53.022Z,57.78
2024-01-24T16:40:19.846Z,57.72
2024-01-24T16:42:46.874Z,57.73
2024-01-24T16:45:13.688Z,57.09
2024-01-24T16:47:40.629Z,58.48
2024-01-24T16:50:08.238Z,58.58
2024-01-24T16:52:38.024Z,58.02
2024-01-24T16:55:05.488Z,57.89
2024-01-24T16:57:32.240Z,58.76
2024-01-24T16:59:59.091Z,58.34
2024-01-24T17:02:34.893Z,58.59
2024-01-24T17:05:10.913Z,58.70
2024-01-24T17:07:37.827Z,57.56
2024-01-24T17:10:04.968Z,56.02
2024-01-24T17:12:33.513Z,55.78
2024-01-24T17:15:00.595Z,56.10
2024-01-24T17:17:27.392Z,54.56
2024-01-24T17:19:55.031Z,55.02
2024-01-24T17:22:21.930Z,54.50
2024-01-24T17:24:48.792Z,54.55
2024-01-24T17:27:15.836Z,54.84
2024-01-24T17:29:42.680Z,54.21
2024-01-24T17:32:09.368Z,53.99
2024-01-24T17:34:36.194Z,55.47
2024-01-24T17:37:03.143Z,54.32
2024-01-24T17:39:30.300Z,53.38
2024-01-24T17:41:59.149Z,52.89
2024-01-24T17:44:25.989Z,52.50
2024-01-24T17:46:52.989Z,51.63
2024-01-24T17:49:19.884Z,51.99
2024-01-24T17:51:46.669Z,52.02
2024-01-24T17:54:14.013Z,51.66
2024-01-24T17:56:41.103Z,51.58
2024-01-24T17:59:09.903Z,54.79
2024-01-24T18:01:39.789Z,54.76
2024-01-24T18:04:07.158Z,53.28
2024-01-24T18:06:34.019Z,52.72
2024-01-24T18:09:00.859Z,52.91
2024-01-24T18:11:27.686Z,52.94
2024-01-24T18:13:54.649Z,52.95
2024-01-24T18:16:21.363Z,53.29
2024-01-24T18:18:50.256Z,56.43
2024-01-24T18:21:17.919Z,54.74
2024-01-24T18:23:44.647Z,55.54
2024-01-24T18:26:11.997Z,54.63
2024-01-24T18:28:38.734Z,54.37
2024-01-24T18:31:05.465Z,54.19
2024-01-24T18:33:32.367Z,54.40
2024-01-24T18:35:59.135Z,55.76
2024-01-24T18:38:27.201Z,58.06
2024-01-24T18:40:54.193Z,56.10
2024-01-24T18:43:21.077Z,55.82
2024-01-24T18:45:47.875Z,55.25
2024-01-24T18:48:19.468Z,55.66
2024-01-24T18:50:47.255Z,55.40
2024-01-24T18:53:14.120Z,54.76
2024-01-24T18:55:40.977Z,55.19
2024-01-24T18:58:08.345Z,55.75
2024-01-24T19:00:35.356Z,55.21
2024-01-24T19:03:02.414Z,55.03
2024-01-24T19:05:36.939Z,56.63
2024-01-24T19:08:08.785Z,55.79
2024-01-24T19:10:36.591Z,55.62
2024-01-24T19:13:03.805Z,58.07
2024-01-24T19:15:33.216Z,57.21
2024-01-24T19:18:07.346Z,56.07
2024-01-24T19:20:40.569Z,56.96
2024-01-24T19:23:07.557Z,55.87
2024-01-24T19:25:34.278Z,56.40
2024-01-24T19:28:01.007Z,55.93
2024-01-24T19:30:28.428Z,56.26
2024-01-24T19:32:55.294Z,55.98
2024-01-24T19:35:22.216Z,56.27
2024-01-24T19:37:49.155Z,56.21
2024-01-24T19:40:17.275Z,56.07
2024-01-24T19:42:44.169Z,57.57
2024-01-24T19:45:13.164Z,56.91
2024-01-24T19:47:40.012Z,57.03
2024-01-24T19:50:10.807Z,59.96
2024-01-24T19:52:39.977Z,59.82
2024-01-24T19:55:07.979Z,59.44
2024-01-24T19:57:34.886Z,60.33
2024-01-24T20:00:01.716Z,57.60
2024-01-24T20:02:29.068Z,56.27
2024-01-24T20:04:56.744Z,55.43
2024-01-24T20:07:23.737Z,55.58
2024-01-24T20:09:51.860Z,55.61
2024-01-24T20:12:19.246Z,58.45
2024-01-24T20:14:46.200Z,62.22
2024-01-24T20:17:12.914Z,58.70
2024-01-24T20:19:39.733Z,57.08
2024-01-24T20:22:07.269Z,56.17
2024-01-24T20:24:34.042Z,55.82
2024-01-24T20:27:00.713Z,55.70
2024-01-24T20:29:27.428Z,56.00
2024-01-24T20:31:54.094Z,55.39
2024-01-24T20:34:21.702Z,55.75
2024-01-24T20:36:48.599Z,55.90
2024-01-24T20:39:18.553Z,55.74
2024-01-24T20:41:47.918Z,55.53
2024-01-24T20:44:15.656Z,55.56
2024-01-24T20:46:43.129Z,55.64
2024-01-24T20:49:10.302Z,55.84
2024-01-24T20:51:37.333Z,55.74
2024-01-24T20:54:09.773Z,55.46
2024-01-24T20:56:37.404Z,55.27
2024-01-24T20:59:04.348Z,55.35
2024-01-24T21:01:31.375Z,55.30
2024-01-24T21:03:58.694Z,57.80
2024-01-24T21:06:26.468Z,57.17
2024-01-24T21:08:54.504Z,62.18
2024-01-24T21:11:21.829Z,59.80
2024-01-24T21:13:48.680Z,60.88
2024-01-24T21:16:15.876Z,63.66
2024-01-24T21:18:43.485Z,62.14
2024-01-24T21:21:12.012Z,59.55
2024-01-24T21:23:38.943Z,59.20
2024-01-24T21:26:05.796Z,58.62
2024-01-24T21:28:32.553Z,57.08
2024-01-24T21:30:59.260Z,56.41
2024-01-24T21:33:26.579Z,55.72
2024-01-24T21:35:54.935Z,55.54
2024-01-24T21:38:22.033Z,56.57
2024-01-24T21:40:48.839Z,57.65
2024-01-24T21:43:15.644Z,56.49
2024-01-24T21:45:42.791Z,56.77
2024-01-24T21:48:09.563Z,56.81
2024-01-24T21:50:36.319Z,56.02
2024-01-24T21:53:03.065Z,55.71
2024-01-24T21:55:32.150Z,55.44
2024-01-24T21:58:00.879Z,54.91
2024-01-24T22:00:27.819Z,54.87
2024-01-24T22:02:54.584Z,54.71
2024-01-24T22:05:22.270Z,55.25
2024-01-24T22:07:50.898Z,56.15
2024-01-24T22:10:18.281Z,55.37
2024-01-24T22:12:46.121Z,55.21
2024-01-24T22:15:12.975Z,55.25
2024-01-24T22:17:40.702Z,55.22
2024-01-24T22:20:11.107Z,55.18
2024-01-24T22:22:38.031Z,55.23
2024-01-24T22:25:06.364Z,55.03
2024-01-24T22:27:33.188Z,55.38
2024-01-24T22:30:05.297Z,55.00
2024-01-24T22:32:33.107Z,54.71
2024-01-24T22:35:02.148Z,55.04
2024-01-24T22:37:29.000Z,54.53
2024-01-24T22:39:55.703Z,56.04
2024-01-24T22:42:22.396Z,56.58
2024-01-24T22:44:49.120Z,57.11
2024-01-24T22:47:17.988Z,56.66
2024-01-24T22:49:44.885Z,56.66
2024-01-24T22:52:11.874Z,56.50
2024-01-24T22:54:38.648Z,56.10
2024-01-24T22:57:05.639Z,56.56
2024-01-24T22:59:32.560Z,57.03
2024-01-24T23:01:59.393Z,56.67
2024-01-24T23:04:26.351Z,56.06
2024-01-24T23:06:53.256Z,56.09
2024-01-24T23:09:20.604Z,56.35
2024-01-24T23:11:47.290Z,56.16
2024-01-24T23:14:14.021Z,55.84
2024-01-24T23:16:40.620Z,56.20
2024-01-24T23:19:07.386Z,56.04
2024-01-24T23:21:34.167Z,56.03
2024-01-24T23:24:00.973Z,55.91
2024-01-24T23:26:27.579Z,55.95
2024-01-24T23:28:54.775Z,56.20
2024-01-24T23:31:21.549Z,56.25
2024-01-24T23:33:48.323Z,55.66
2024-01-24T23:36:15.163Z,56.25
2024-01-24T23:38:41.863Z,56.51
2024-01-24T23:41:08.634Z,56.54
2024-01-24T23:43:36.591Z,57.69
2024-01-24T23:46:03.325Z,58.74
2024-01-24T23:48:30.244Z,58.27
2024-01-24T23:50:57.159Z,58.27
2024-01-24T23:53:23.934Z,58.61
2024-01-24T23:55:50.769Z,58.08
2024-01-24T23:58:18.502Z,57.59
